Time;durP1;ratioP1;P1;durP2;ratioP2;P2;SDS_P1;SDS_P2;PMS_P1;PMS_P2;Temp;Humidity;BMP_temperature;BMP_pressure;BME280_temperature;BME280_humidity;BME280_pressure;Samples;Min_cycle;Max_cycle;Signal;HPM_P1;HPM_P2
2021/07/24 00:00:56;;;;;;;5.68;3.85;;;23.50;58.80;;;;;;2251215;55;21080;-68
2021/07/24 00:03:23;;;;;;;5.25;3.33;;;23.50;58.90;;;;;;2253966;55;20961;-66
2021/07/24 00:05:50;;;;;;;6.65;4.15;;;23.50;58.90;;;;;;2459240;55;20972;-67
2021/07/24 00:08:17;;;;;;;5.93;3.78;;;23.50;58.90;;;;;;2257620;55;21024;-67
2021/07/24 00:10:43;;;;;;;8.30;4.68;;;23.40;59.00;;;;;;2249287;55;21067;-67
2021/07/24 00:13:10;;;;;;;5.62;4.03;;;23.40;59.10;;;;;;2343506;55;21107;-66
2021/07/24 00:15:36;;;;;;;6.50;4.00;;;23.40;59.10;;;;;;2478436;55;20951;-67
2021/07/24 00:18:02;;;;;;;6.78;4.72;;;23.40;59.20;;;;;;2250206;55;20983;-67
2021/07/24 00:20:28;;;;;;;7.50;4.47;;;23.40;59.20;;;;;;2250649;55;21264;-68
2021/07/24 00:22:55;;;;;;;7.05;4.62;;;23.40;59.30;;;;;;2253564;55;21064;-67
2021/07/24 00:25:21;;;;;;;7.43;4.40;;;23.40;59.40;;;;;;2477336;55;22149;-69
2021/07/24 00:27:48;;;;;;;7.68;4.95;;;23.30;59.20;;;;;;2253232;55;20985;-67
2021/07/24 00:30:15;;;;;;;6.68;4.60;;;23.30;59.30;;;;;;2477113;55;20960;-66
2021/07/24 00:32:41;;;;;;;7.32;4.37;;;23.30;59.30;;;;;;2478124;55;20955;-67
2021/07/24 00:35:08;;;;;;;6.40;4.12;;;23.30;59.30;;;;;;2250466;55;20967;-66
2021/07/24 00:37:34;;;;;;;6.05;4.12;;;23.30;59.30;;;;;;2250331;55;21020;-69
2021/07/24 00:40:01;;;;;;;8.35;4.95;;;23.30;59.50;;;;;;2254202;55;20976;-67
2021/07/24 00:42:27;;;;;;;6.78;4.40;;;23.30;59.50;;;;;;2249454;55;21088;-67
2021/07/24 00:44:55;;;;;;;9.07;5.03;;;23.30;59.60;;;;;;2411399;55;21087;-66
2021/07/24 00:47:26;;;;;;;8.65;4.97;;;23.30;59.70;;;;;;2250325;55;21091;-67
2021/07/24 00:49:52;;;;;;;6.10;4.15;;;23.20;59.70;;;;;;2338322;55;20956;-67
2021/07/24 00:52:18;;;;;;;10.05;5.80;;;23.20;59.60;;;;;;2249364;55;21964;-67
2021/07/24 00:54:44;;;;;;;9.57;6.55;;;23.30;59.80;;;;;;2250629;55;21052;-68
2021/07/24 00:57:13;;;;;;;9.30;6.70;;;23.30;59.90;;;;;;2251675;55;21119;-67
2021/07/24 00:59:40;;;;;;;9.60;6.57;;;23.20;59.90;;;;;;2304920;55;21095;-69
2021/07/24 01:02:06;;;;;;;9.77;6.07;;;23.20;59.90;;;;;;2249718;55;21007;-66
2021/07/24 01:04:32;;;;;;;9.13;6.32;;;23.20;60.00;;;;;;2252457;55;20948;-67
2021/07/24 01:06:59;;;;;;;10.70;5.43;;;23.20;60.00;;;;;;2250098;55;21021;-66
2021/07/24 01:09:26;;;;;;;7.75;5.18;;;23.20;60.00;;;;;;2278317;55;20988;-67
2021/07/24 01:11:52;;;;;;;7.20;4.80;;;23.20;60.30;;;;;;2417758;55;22010;-69
2021/07/24 01:14:18;;;;;;;10.70;5.20;;;23.20;60.10;;;;;;2478175;55;21035;-67
2021/07/24 01:16:45;;;;;;;8.35;5.35;;;23.20;60.20;;;;;;2263447;55;20985;-66
2021/07/24 01:19:12;;;;;;;9.80;6.72;;;23.10;60.20;;;;;;2236226;56;21094;-67
2021/07/24 01:21:38;;;;;;;9.00;5.68;;;23.20;60.50;;;;;;2250220;55;20968;-69
2021/07/24 01:24:05;;;;;;;8.48;5.87;;;23.30;60.60;;;;;;2252692;55;20949;-66
2021/07/24 01:26:34;;;;;;;10.82;6.57;;;23.20;60.50;;;;;;2478051;55;20964;-67
2021/07/24 01:29:01;;;;;;;9.20;5.82;;;23.20;60.70;;;;;;2279122;55;20991;-67
2021/07/24 01:31:27;;;;;;;7.30;5.15;;;23.30;60.90;;;;;;2251251;55;21079;-69
2021/07/24 01:33:54;;;;;;;8.00;5.15;;;23.20;60.70;;;;;;2249632;55;21003;-68
2021/07/24 01:36:20;;;;;;;8.55;5.82;;;23.20;60.70;;;;;;2250301;55;21087;-66
2021/07/24 01:38:46;;;;;;;8.48;5.75;;;23.20;60.80;;;;;;2250341;55;21093;-67
2021/07/24 01:41:13;;;;;;;8.70;5.65;;;23.20;60.70;;;;;;2250221;55;21091;-67
2021/07/24 01:43:39;;;;;;;7.50;4.85;;;23.30;60.90;;;;;;2254067;55;20940;-67
2021/07/24 01:46:06;;;;;;;8.25;5.35;;;23.20;60.70;;;;;;2249784;55;21059;-67
2021/07/24 01:48:38;;;;;;;7.95;5.30;;;23.20;60.80;;;;;;2477844;55;21139;-66
2021/07/24 01:53:54;;;;;;;7.12;5.03;;;23.20;60.80;;;;;;2288920;55;21087;-67
2021/07/24 01:56:22;;;;;;;7.18;4.50;;;23.20;61.00;;;;;;2249577;55;22331;-67
2021/07/24 01:58:48;;;;;;;8.70;5.40;;;23.20;60.90;;;;;;2478312;55;21968;-66
2021/07/24 02:01:14;;;;;;;8.20;5.30;;;23.20;60.90;;;;;;2254384;55;22111;-67
2021/07/24 02:03:44;;;;;;;8.40;5.53;;;23.20;61.00;;;;;;2461620;55;21021;-67
2021/07/24 02:06:14;;;;;;;8.55;5.57;;;23.20;61.20;;;;;;2250448;55;21034;-67
2021/07/24 02:08:43;;;;;;;6.85;4.43;;;23.20;61.10;;;;;;2350988;55;20952;-67
2021/07/24 02:11:09;;;;;;;6.82;4.80;;;23.20;61.10;;;;;;2249970;55;21028;-68
2021/07/24 02:13:35;;;;;;;7.20;4.78;;;23.20;61.10;;;;;;2359883;55;22020;-66
2021/07/24 02:16:02;;;;;;;8.65;5.65;;;23.20;61.20;;;;;;2369376;55;20951;-68
2021/07/24 02:18:29;;;;;;;9.02;5.53;;;23.20;61.30;;;;;;2478346;55;20968;-67
2021/07/24 02:20:55;;;;;;;8.07;5.43;;;23.20;61.30;;;;;;2250274;55;20971;-67
2021/07/24 02:23:21;;;;;;;8.55;5.65;;;23.20;61.30;;;;;;2250030;55;21091;-67
2021/07/24 02:25:48;;;;;;;9.05;6.03;;;23.10;61.30;;;;;;2254479;55;21075;-67
2021/07/24 02:28:14;;;;;;;8.20;5.18;;;23.20;61.40;;;;;;2249356;55;21039;-69
2021/07/24 02:30:40;;;;;;;8.35;5.35;;;23.10;61.30;;;;;;2307342;55;20999;-67
2021/07/24 02:33:07;;;;;;;9.98;5.25;;;23.20;61.50;;;;;;2360469;55;20979;-67
2021/07/24 02:35:33;;;;;;;8.82;5.97;;;23.20;61.50;;;;;;2251826;55;22164;-67
2021/07/24 02:38:00;;;;;;;7.72;5.30;;;23.20;61.60;;;;;;2439097;55;20984;-68
2021/07/24 02:40:26;;;;;;;8.15;5.40;;;23.10;61.50;;;;;;2250250;55;21020;-66
2021/07/24 02:42:54;;;;;;;7.30;4.90;;;23.20;61.60;;;;;;2293043;55;20960;-69
2021/07/24 02:45:21;;;;;;;8.15;5.47;;;23.10;61.50;;;;;;2253510;55;20928;-68
2021/07/24 02:47:47;;;;;;;9.80;6.28;;;23.20;61.60;;;;;;2305979;55;20955;-67
2021/07/24 02:50:14;;;;;;;8.02;5.97;;;23.20;61.60;;;;;;2253798;55;21063;-67
2021/07/24 02:52:40;;;;;;;8.10;5.65;;;23.10;61.60;;;;;;2253644;55;20976;-67
2021/07/24 02:55:07;;;;;;;8.80;5.60;;;23.10;61.60;;;;;;2276671;55;20952;-66
2021/07/24 02:57:34;;;;;;;8.23;5.43;;;23.10;61.80;;;;;;2475855;55;20970;-67
2021/07/24 03:00:00;;;;;;;7.68;5.28;;;23.10;61.70;;;;;;2469920;55;20948;-68
2021/07/24 03:02:26;;;;;;;8.00;4.80;;;23.10;61.70;;;;;;2250598;55;21102;-68
2021/07/24 03:04:53;;;;;;;7.57;4.78;;;23.10;61.60;;;;;;2250635;55;21052;-67
2021/07/24 03:07:19;;;;;;;7.97;5.30;;;23.10;61.70;;;;;;2250343;55;21075;-67
2021/07/24 03:09:46;;;;;;;8.18;5.55;;;23.10;61.70;;;;;;2250158;55;21039;-69
2021/07/24 03:12:13;;;;;;;6.90;4.62;;;23.10;61.70;;;;;;2250494;55;21090;-67
2021/07/24 03:14:39;;;;;;;7.07;4.62;;;23.10;61.70;;;;;;2255682;55;20948;-66
2021/07/24 03:17:05;;;;;;;7.03;4.47;;;23.10;61.70;;;;;;2250648;55;22002;-66
2021/07/24 03:19:32;;;;;;;6.10;4.12;;;23.10;61.70;;;;;;2254263;55;21008;-68
2021/07/24 03:21:58;;;;;;;9.38;6.12;;;23.10;61.70;;;;;;2074503;55;12412724;-66
2021/07/24 03:24:25;;;;;;;9.70;5.68;;;23.10;62.00;;;;;;2217022;56;21038;-67
2021/07/24 03:26:51;;;;;;;8.70;5.32;;;23.10;61.90;;;;;;2350828;56;20991;-67
2021/07/24 03:29:17;;;;;;;9.65;5.45;;;23.10;61.80;;;;;;2223020;56;22073;-67
2021/07/24 03:31:44;;;;;;;8.88;5.65;;;23.10;61.80;;;;;;2236267;56;21430;-67
2021/07/24 03:34:10;;;;;;;8.60;5.82;;;23.10;61.80;;;;;;2224710;57;21028;-67
2021/07/24 03:36:37;;;;;;;7.97;5.53;;;23.00;61.60;;;;;;2223987;57;20972;-66
2021/07/24 03:39:04;;;;;;;7.80;5.20;;;23.00;61.60;;;;;;2219763;57;21010;-67
2021/07/24 03:41:35;;;;;;;7.12;4.75;;;23.00;61.70;;;;;;2433627;56;21017;-68
2021/07/24 03:44:02;;;;;;;7.60;5.25;;;23.00;61.90;;;;;;2439883;56;21116;-67
2021/07/24 03:46:28;;;;;;;8.63;5.45;;;23.00;62.00;;;;;;2207746;57;20952;-67
2021/07/24 03:48:55;;;;;;;8.95;5.28;;;23.00;62.10;;;;;;2223813;57;21000;-67
2021/07/24 03:51:22;;;;;;;9.02;4.95;;;23.00;62.20;;;;;;2317239;56;21000;-67
2021/07/24 03:53:48;;;;;;;7.87;5.30;;;23.00;62.30;;;;;;2223647;57;22262;-68
2021/07/24 03:56:15;;;;;;;10.45;5.65;;;23.00;62.30;;;;;;2424043;56;21067;-67
2021/07/24 03:58:45;;;;;;;7.65;5.12;;;23.00;62.40;;;;;;2446143;55;20975;-67
2021/07/24 04:01:12;;;;;;;9.65;6.12;;;23.00;62.50;;;;;;2223047;56;22045;-66
2021/07/24 04:03:39;;;;;;;9.13;6.20;;;23.00;62.50;;;;;;2214840;57;20974;-67
2021/07/24 04:06:09;;;;;;;9.20;5.97;;;23.00;62.60;;;;;;2379347;56;21524;-68
2021/07/24 04:08:36;;;;;;;9.13;5.95;;;23.00;62.80;;;;;;2433736;56;20988;-66
2021/07/24 04:11:03;;;;;;;8.07;5.82;;;23.00;62.80;;;;;;2446515;56;20988;-69
2021/07/24 04:13:31;;;;;;;10.18;6.28;;;23.00;62.90;;;;;;2223784;57;21345;-69
2021/07/24 04:15:58;;;;;;;8.50;5.93;;;23.00;62.90;;;;;;2224326;57;21044;-67
2021/07/24 04:18:25;;;;;;;7.90;5.25;;;23.00;63.00;;;;;;2446929;56;20981;-67
2021/07/24 04:20:51;;;;;;;15.15;5.97;;;23.00;63.00;;;;;;2226043;57;21028;-67
2021/07/24 04:23:17;;;;;;;10.02;6.65;;;23.10;63.20;;;;;;2212468;57;20998;-69
2021/07/24 04:25:44;;;;;;;11.65;5.47;;;23.00;63.10;;;;;;2330719;56;21026;-66
2021/07/24 04:28:10;;;;;;;9.13;6.18;;;23.10;63.30;;;;;;2223945;57;21022;-66
2021/07/24 04:30:36;;;;;;;10.73;6.20;;;23.10;63.30;;;;;;2205789;57;20973;-70
2021/07/24 04:33:03;;;;;;;7.53;5.18;;;23.10;63.30;;;;;;2224332;57;20995;-67
2021/07/24 04:35:29;;;;;;;8.10;5.28;;;23.10;63.20;;;;;;2253476;56;21117;-67
2021/07/24 04:37:56;;;;;;;9.40;5.78;;;23.10;63.20;;;;;;2433984;56;21005;-67
2021/07/24 04:40:22;;;;;;;8.63;5.70;;;23.10;63.20;;;;;;2209215;56;22306;-67
2021/07/24 04:42:49;;;;;;;9.27;5.93;;;23.10;63.30;;;;;;2238391;56;21929;-66
2021/07/24 04:45:15;;;;;;;9.43;5.65;;;23.10;63.40;;;;;;2207975;57;22117;-67
2021/07/24 04:47:43;;;;;;;8.05;5.03;;;23.10;63.40;;;;;;2219664;57;20988;-66
2021/07/24 04:50:10;;;;;;;8.27;5.93;;;23.20;63.60;;;;;;2224835;57;20981;-67
2021/07/24 04:52:36;;;;;;;7.57;5.20;;;23.10;63.60;;;;;;2219455;57;21604;-67
2021/07/24 04:55:03;;;;;;;10.00;4.95;;;23.10;63.60;;;;;;2223925;57;21064;-68
2021/07/24 04:57:30;;;;;;;7.57;4.85;;;23.10;63.60;;;;;;2208541;57;21007;-69
2021/07/24 04:59:57;;;;;;;7.50;5.25;;;23.20;63.70;;;;;;2230774;56;22063;-66
2021/07/24 05:02:23;;;;;;;7.87;4.97;;;23.20;63.70;;;;;;2226468;56;20979;-66
2021/07/24 05:04:50;;;;;;;8.55;5.43;;;23.20;63.70;;;;;;2226441;56;21569;-69
2021/07/24 05:07:18;;;;;;;9.13;6.43;;;23.20;63.80;;;;;;2223707;57;21005;-67
2021/07/24 05:09:44;;;;;;;8.60;5.50;;;23.30;63.90;;;;;;2372791;56;21062;-69
2021/07/24 05:12:11;;;;;;;8.43;5.07;;;23.30;63.80;;;;;;2223928;57;20968;-69
2021/07/24 05:14:37;;;;;;;8.40;5.53;;;23.30;63.80;;;;;;2223964;57;21021;-66
2021/07/24 05:17:05;;;;;;;7.30;5.22;;;23.30;64.00;;;;;;2224088;57;20965;-69
2021/07/24 05:19:34;;;;;;;9.10;6.32;;;23.40;63.90;;;;;;2228250;56;21912;-67
2021/07/24 05:22:01;;;;;;;7.93;5.43;;;23.40;63.90;;;;;;2206412;57;21124;-67
2021/07/24 05:24:27;;;;;;;8.35;5.55;;;23.40;63.90;;;;;;2219031;57;21007;-67
2021/07/24 05:26:54;;;;;;;8.38;6.10;;;23.40;63.90;;;;;;2210357;57;20969;-67
2021/07/24 05:29:20;;;;;;;8.55;5.85;;;23.40;63.80;;;;;;2230285;56;22017;-67
2021/07/24 05:31:46;;;;;;;8.30;5.18;;;23.40;63.80;;;;;;2224312;57;20976;-67
2021/07/24 05:34:12;;;;;;;9.43;6.07;;;23.40;63.60;;;;;;2237200;56;21091;-67
2021/07/24 05:36:39;;;;;;;7.60;5.00;;;23.50;63.80;;;;;;2223997;57;20988;-67
2021/07/24 05:39:05;;;;;;;7.55;5.05;;;23.50;63.80;;;;;;2317294;56;20976;-67
2021/07/24 05:41:31;;;;;;;8.05;5.18;;;23.50;63.90;;;;;;2224107;57;21012;-69
2021/07/24 05:43:58;;;;;;;7.05;4.97;;;23.50;63.90;;;;;;2224621;57;21035;-67
2021/07/24 05:46:24;;;;;;;8.77;5.47;;;23.50;63.90;;;;;;2215513;56;21079;-67
2021/07/24 05:48:50;;;;;;;10.70;6.93;;;23.50;63.90;;;;;;2414164;56;21034;-68
2021/07/24 05:51:17;;;;;;;9.95;6.78;;;23.50;63.80;;;;;;2393289;56;21001;-67
2021/07/24 05:53:43;;;;;;;9.73;6.70;;;23.50;64.00;;;;;;2214380;57;21121;-67
2021/07/24 05:56:10;;;;;;;10.65;6.80;;;23.50;64.10;;;;;;2199188;57;21048;-67
2021/07/24 05:58:36;;;;;;;8.93;5.55;;;23.50;64.20;;;;;;2372303;56;20952;-67
2021/07/24 06:01:08;;;;;;;8.55;5.80;;;23.50;64.30;;;;;;2208008;57;21085;-67
2021/07/24 06:03:35;;;;;;;7.15;5.05;;;23.50;64.60;;;;;;2439873;56;20992;-67
2021/07/24 06:06:02;;;;;;;10.05;5.25;;;23.50;64.40;;;;;;2211848;57;20978;-70
2021/07/24 06:08:28;;;;;;;9.63;5.32;;;23.60;64.50;;;;;;2255698;56;21053;-67
2021/07/24 06:11:02;;;;;;;7.90;5.37;;;23.60;64.60;;;;;;2218704;57;21115;-67
2021/07/24 06:13:28;;;;;;;9.18;5.57;;;23.60;64.90;;;;;;2220263;56;22116;-67
2021/07/24 06:15:55;;;;;;;7.18;5.15;;;23.60;64.90;;;;;;2218546;57;22094;-71
2021/07/24 06:18:22;;;;;;;7.43;5.00;;;23.70;65.10;;;;;;2218721;57;21662;-68
2021/07/24 06:20:49;;;;;;;7.68;5.35;;;23.70;65.10;;;;;;2219093;57;20972;-67
2021/07/24 06:23:15;;;;;;;9.73;6.12;;;23.70;65.00;;;;;;2230988;56;21682;-66
2021/07/24 06:25:43;;;;;;;8.68;5.87;;;23.80;65.00;;;;;;2440731;56;21008;-69
2021/07/24 06:28:09;;;;;;;9.70;6.03;;;23.80;65.00;;;;;;2270624;56;21701;-68
2021/07/24 06:30:36;;;;;;;9.50;5.82;;;23.80;64.90;;;;;;2219501;57;21024;-68
2021/07/24 06:33:02;;;;;;;7.62;5.05;;;23.80;64.80;;;;;;2221474;56;21406;-70
2021/07/24 06:35:29;;;;;;;9.90;5.18;;;23.90;64.90;;;;;;2209519;57;20985;-68
2021/07/24 06:37:55;;;;;;;8.43;5.40;;;23.90;64.80;;;;;;2250957;56;20972;-67
2021/07/24 06:40:22;;;;;;;7.80;4.85;;;23.90;64.70;;;;;;2215546;57;21125;-67
2021/07/24 06:42:48;;;;;;;8.80;5.53;;;24.00;64.70;;;;;;2212981;57;21376;-67
2021/07/24 06:45:15;;;;;;;7.28;5.00;;;23.90;64.40;;;;;;2358969;56;20968;-68
2021/07/24 06:47:41;;;;;;;7.78;4.60;;;24.00;64.40;;;;;;2223775;57;21032;-67
2021/07/24 06:50:08;;;;;;;8.32;5.12;;;24.10;64.30;;;;;;2417455;56;21393;-67
2021/07/24 06:52:34;;;;;;;6.97;4.50;;;24.10;64.10;;;;;;2423003;56;21120;-68
2021/07/24 06:55:01;;;;;;;6.87;4.12;;;24.10;64.10;;;;;;2220841;57;21068;-68
2021/07/24 06:57:27;;;;;;;10.63;3.83;;;24.20;64.10;;;;;;2223931;57;20964;-67
2021/07/24 06:59:54;;;;;;;7.10;4.80;;;24.20;64.10;;;;;;2210815;57;21001;-70
2021/07/24 07:02:21;;;;;;;6.65;4.55;;;24.20;63.90;;;;;;2220147;57;20972;-69
2021/07/24 07:04:48;;;;;;;9.48;4.60;;;24.30;63.90;;;;;;2202198;57;21001;-66
2021/07/24 07:07:14;;;;;;;6.93;3.92;;;24.30;63.80;;;;;;2208663;57;21488;-67
2021/07/24 07:09:41;;;;;;;5.68;3.85;;;24.30;63.60;;;;;;2223465;56;21062;-67
2021/07/24 07:12:07;;;;;;;7.43;3.30;;;24.40;63.50;;;;;;2235476;56;21012;-67
2021/07/24 07:14:34;;;;;;;6.70;3.87;;;24.40;63.60;;;;;;2211459;57;22331;-70
2021/07/24 07:17:00;;;;;;;4.75;2.83;;;24.50;63.50;;;;;;2436545;56;21013;-67
2021/07/24 07:19:27;;;;;;;7.32;3.22;;;24.50;63.30;;;;;;2223461;57;21056;-67
2021/07/24 07:21:53;;;;;;;5.28;3.30;;;24.50;63.30;;;;;;2223080;57;21008;-70
2021/07/24 07:24:20;;;;;;;3.47;2.35;;;24.60;63.40;;;;;;2223271;57;21091;-67
2021/07/24 07:26:46;;;;;;;4.32;2.65;;;24.70;63.40;;;;;;2208040;57;21026;-67
2021/07/24 07:29:13;;;;;;;6.50;2.78;;;24.80;63.20;;;;;;2223112;56;21510;-67
2021/07/24 07:31:39;;;;;;;5.32;3.20;;;24.90;63.30;;;;;;2223908;57;21001;-67
2021/07/24 07:34:05;;;;;;;5.93;2.87;;;25.00;63.30;;;;;;2205167;57;20978;-68
2021/07/24 07:36:32;;;;;;;6.10;3.33;;;25.10;63.30;;;;;;2259380;56;20985;-68
2021/07/24 07:38:58;;;;;;;5.95;3.22;;;25.10;63.20;;;;;;2246517;56;21050;-68
2021/07/24 07:41:24;;;;;;;7.28;4.80;;;25.20;63.00;;;;;;2445576;56;20968;-69
2021/07/24 07:43:50;;;;;;;7.00;4.32;;;25.20;62.70;;;;;;2224196;57;20980;-67
2021/07/24 07:46:17;;;;;;;6.35;4.53;;;25.30;62.70;;;;;;2301589;56;20969;-67
2021/07/24 07:48:43;;;;;;;8.05;5.12;;;25.30;62.80;;;;;;2226108;56;22041;-70
2021/07/24 07:51:09;;;;;;;7.47;4.95;;;25.30;62.70;;;;;;2328793;56;21006;-68
2021/07/24 07:53:36;;;;;;;7.43;4.97;;;25.40;62.80;;;;;;2209909;57;20984;-69
2021/07/24 07:56:03;;;;;;;7.68;5.50;;;25.40;62.60;;;;;;2214647;57;22590;-69
2021/07/24 07:58:30;;;;;;;8.10;5.30;;;25.40;62.60;;;;;;2206370;57;21088;-69
2021/07/24 08:00:56;;;;;;;7.47;4.85;;;25.40;62.60;;;;;;2344858;56;20973;-67
2021/07/24 08:03:25;;;;;;;6.28;4.53;;;25.40;62.70;;;;;;2218142;57;20993;-66
2021/07/24 08:05:52;;;;;;;8.50;4.37;;;25.40;62.80;;;;;;2306388;56;22050;-70
2021/07/24 08:08:19;;;;;;;7.15;3.90;;;25.40;63.00;;;;;;2441777;56;21652;-68
2021/07/24 08:10:45;;;;;;;5.82;3.80;;;25.50;63.30;;;;;;2423231;56;20972;-67
2021/07/24 08:13:16;;;;;;;7.03;3.80;;;25.60;63.50;;;;;;2224229;57;21087;-68
2021/07/24 08:15:47;;;;;;;5.37;3.17;;;25.70;63.70;;;;;;2381579;56;20968;-68
2021/07/24 08:18:14;;;;;;;6.22;3.35;;;25.70;63.70;;;;;;2224414;57;21116;-68
2021/07/24 08:20:41;;;;;;;6.12;3.83;;;25.80;63.80;;;;;;2219641;57;21002;-68
2021/07/24 08:23:08;;;;;;;5.53;3.55;;;25.90;63.60;;;;;;2212620;56;21578;-68
2021/07/24 08:25:35;;;;;;;5.12;3.28;;;26.00;63.30;;;;;;2230732;56;21066;-68
2021/07/24 08:28:04;;;;;;;4.25;2.92;;;26.10;62.90;;;;;;2223779;56;21566;-67
2021/07/24 08:30:31;;;;;;;7.00;3.58;;;26.20;62.80;;;;;;2231583;56;21011;-68
2021/07/24 08:32:57;;;;;;;6.07;3.47;;;26.20;62.60;;;;;;2223747;56;21076;-67
2021/07/24 08:35:25;;;;;;;5.60;3.40;;;26.30;62.60;;;;;;2224528;57;21086;-68
2021/07/24 08:37:51;;;;;;;5.57;3.62;;;26.40;62.40;;;;;;2224715;57;21083;-69
2021/07/24 08:40:18;;;;;;;6.85;3.65;;;26.40;61.90;;;;;;2224059;57;20993;-68
2021/07/24 08:42:44;;;;;;;6.22;3.70;;;26.50;61.80;;;;;;2209484;57;21009;-68
2021/07/24 08:45:14;;;;;;;6.50;3.42;;;26.60;61.60;;;;;;2215152;57;21061;-68
2021/07/24 08:47:40;;;;;;;4.85;2.90;;;26.60;61.30;;;;;;2250012;56;20970;-68
2021/07/24 08:50:11;;;;;;;5.47;3.15;;;26.70;61.50;;;;;;2304906;55;21048;-68
2021/07/24 08:52:40;;;;;;;5.82;3.50;;;26.80;61.60;;;;;;2224394;57;20984;-68
2021/07/24 08:55:07;;;;;;;4.97;2.90;;;26.90;61.30;;;;;;2227235;56;20996;-69
2021/07/24 08:57:41;;;;;;;5.15;2.78;;;26.90;61.30;;;;;;2223442;57;21139;-68
2021/07/24 09:00:12;;;;;;;5.03;3.08;;;27.00;60.70;;;;;;2189340;58;21078;-68
2021/07/24 09:02:47;;;;;;;4.75;2.90;;;27.10;60.70;;;;;;2206421;57;20973;-69
2021/07/24 09:05:15;;;;;;;7.25;2.87;;;27.10;60.70;;;;;;2210446;57;21033;-68
2021/07/24 09:07:43;;;;;;;5.00;3.15;;;27.20;60.50;;;;;;2446072;56;20969;-68
2021/07/24 09:10:09;;;;;;;5.47;2.90;;;27.20;60.40;;;;;;2433862;56;20993;-70
2021/07/24 09:16:15;;;;;;;4.53;2.87;;;27.40;59.90;;;;;;2241984;56;21037;-70
2021/07/24 09:18:42;;;;;;;4.68;2.97;;;27.50;60.10;;;;;;2219719;57;20999;-70
2021/07/24 09:21:09;;;;;;;4.60;3.00;;;27.50;60.10;;;;;;2232327;57;20997;-69
2021/07/24 09:23:39;;;;;;;3.50;2.28;;;27.60;60.20;;;;;;2211603;57;20959;-69
2021/07/24 09:26:06;;;;;;;4.32;2.45;;;27.60;60.30;;;;;;2249011;56;20953;-68
2021/07/24 09:28:33;;;;;;;5.40;3.10;;;27.70;60.30;;;;;;2222815;57;21032;-68
2021/07/24 09:31:19;;;;;;;4.45;2.67;;;27.80;60.40;;;;;;2232640;56;21006;-70
2021/07/24 09:33:54;;;;;;;3.83;2.45;;;27.90;59.80;;;;;;2220444;56;21091;-70
2021/07/24 09:36:30;;;;;;;4.60;2.83;;;28.00;60.00;;;;;;2288893;56;21599;-68
2021/07/24 09:39:13;;;;;;;5.12;2.97;;;28.10;59.80;;;;;;2225748;57;21104;-69
2021/07/24 09:41:54;;;;;;;4.95;2.60;;;28.20;59.50;;;;;;2412550;57;21545;-73
2021/07/24 09:44:28;;;;;;;4.55;2.70;;;28.30;59.80;;;;;;2218863;57;20981;-70
2021/07/24 09:46:55;;;;;;;4.95;3.25;;;28.40;59.70;;;;;;2233981;57;20964;-71
2021/07/24 09:49:35;;;;;;;7.32;3.30;;;28.50;59.20;;;;;;2355416;56;20984;-73
2021/07/24 09:52:12;;;;;;;6.72;3.37;;;28.60;59.70;;;;;;2232253;57;20985;-71
2021/07/24 09:54:40;;;;;;;5.82;3.47;;;28.70;58.50;;;;;;2370085;56;22014;-75
2021/07/24 09:57:07;;;;;;;4.95;2.87;;;28.80;58.40;;;;;;2228955;57;20964;-71
2021/07/24 09:59:34;;;;;;;4.60;3.08;;;28.80;58.30;;;;;;2229812;56;22228;-72
2021/07/24 10:02:05;;;;;;;4.95;2.85;;;28.90;58.10;;;;;;2226491;57;21501;-70
2021/07/24 10:04:52;;;;;;;4.78;2.90;;;29.00;57.80;;;;;;2286535;56;20981;-70
2021/07/24 10:07:27;;;;;;;6.03;3.45;;;29.10;57.50;;;;;;2225987;57;21392;-73
2021/07/24 10:09:54;;;;;;;4.93;2.75;;;29.20;57.00;;;;;;2271943;56;20989;-74
2021/07/24 10:12:20;;;;;;;5.37;2.97;;;29.30;56.90;;;;;;2286756;56;21011;-70
2021/07/24 10:14:46;;;;;;;4.30;2.83;;;29.30;56.50;;;;;;2447761;56;21103;-74
2021/07/24 10:17:13;;;;;;;4.47;2.47;;;29.40;56.30;;;;;;2225631;57;20971;-71
2021/07/24 10:19:39;;;;;;;5.15;2.97;;;29.50;56.60;;;;;;2225343;57;21029;-73
2021/07/24 10:22:06;;;;;;;5.07;3.03;;;29.50;56.20;;;;;;2426170;56;21011;-74
2021/07/24 10:24:32;;;;;;;5.15;2.22;;;29.60;56.00;;;;;;2399660;56;20988;-74
2021/07/24 10:27:05;;;;;;;4.35;2.67;;;29.70;55.90;;;;;;2214908;56;21063;-73
2021/07/24 10:29:33;;;;;;;4.97;3.12;;;29.70;55.30;;;;;;2444290;56;20988;-72
2021/07/24 10:32:10;;;;;;;5.15;2.83;;;29.70;55.00;;;;;;2206044;57;21064;-72
2021/07/24 10:34:39;;;;;;;4.45;2.67;;;29.80;54.50;;;;;;2225093;57;21029;-69
2021/07/24 10:37:33;;;;;;;4.78;3.00;;;29.80;53.90;;;;;;2213721;57;21032;-70
2021/07/24 10:47:32;;;;;;;4.93;2.95;;;29.80;52.10;;;;;;2309651;56;22148;-69
2021/07/24 10:49:58;;;;;;;;;;;29.80;52.30;;;;;;2286459;56;21009;-72
2021/07/24 10:52:25;;;;;;;5.12;2.75;;;29.70;52.40;;;;;;2226924;56;20363;-72
2021/07/24 10:55:51;;;;;;;4.57;2.50;;;29.70;52.20;;;;;;2230452;56;21271;-72
2021/07/24 10:58:22;;;;;;;7.05;2.78;;;29.60;52.10;;;;;;2231888;56;21078;-73
2021/07/24 11:00:52;;;;;;;4.32;2.62;;;29.60;52.50;;;;;;2210401;57;21035;-72
2021/07/24 11:03:38;;;;;;;4.22;2.72;;;29.60;52.10;;;;;;2189195;58;22107;-71
2021/07/24 11:09:01;;;;;;;5.00;2.78;;;29.60;51.20;;;;;;2234131;56;20985;-74
2021/07/24 11:11:41;;;;;;;3.70;2.40;;;29.60;52.00;;;;;;2213376;56;21509;-70
2021/07/24 11:14:08;;;;;;;4.35;2.55;;;29.60;52.00;;;;;;2224714;56;20956;-71
2021/07/24 11:18:44;;;;;;;5.03;2.62;;;29.60;52.10;;;;;;2221313;57;21021;-69
2021/07/24 11:21:11;;;;;;;5.68;2.80;;;29.70;51.20;;;;;;2224767;57;20968;-74
2021/07/24 11:24:10;;;;;;;5.03;2.97;;;29.70;51.40;;;;;;2205817;57;20988;-71
2021/07/24 11:26:37;;;;;;;4.18;2.55;;;29.70;51.00;;;;;;2379363;56;20986;-68
2021/07/24 11:29:03;;;;;;;5.18;2.78;;;29.70;51.60;;;;;;2225201;57;21000;-75
2021/07/24 11:31:29;;;;;;;6.68;2.53;;;29.80;51.50;;;;;;2224345;57;21012;-71
2021/07/24 11:33:56;;;;;;;10.43;2.78;;;29.70;51.50;;;;;;2224066;57;20992;-71
2021/07/24 11:36:22;;;;;;;5.37;3.12;;;29.70;51.40;;;;;;2206044;57;20974;-70
2021/07/24 11:38:56;;;;;;;5.97;2.97;;;29.70;51.20;;;;;;2224138;57;22080;-70
2021/07/24 11:41:30;;;;;;;4.45;2.83;;;29.80;51.10;;;;;;2227796;57;20997;-68
2021/07/24 11:44:00;;;;;;;4.65;2.72;;;29.90;51.00;;;;;;2395292;56;20980;-69
2021/07/24 11:46:26;;;;;;;4.57;2.55;;;29.90;51.50;;;;;;2446802;56;21032;-67
2021/07/24 11:49:02;;;;;;;5.93;2.87;;;29.90;51.20;;;;;;2224495;57;20985;-67
2021/07/24 11:51:28;;;;;;;5.32;2.53;;;30.10;50.50;;;;;;2223962;57;21981;-69
2021/07/24 11:53:57;;;;;;;4.40;2.50;;;30.10;51.00;;;;;;2222044;57;20998;-71
2021/07/24 11:56:24;;;;;;;4.90;2.30;;;30.20;50.70;;;;;;2210426;56;20971;-69
2021/07/24 11:58:54;;;;;;;5.32;2.72;;;30.30;50.60;;;;;;2216966;56;22169;-69
2021/07/24 12:01:21;;;;;;;4.80;3.10;;;30.30;50.40;;;;;;2212791;57;20977;-74
2021/07/24 12:04:01;;;;;;;4.30;2.47;;;30.40;50.40;;;;;;2223747;57;21028;-72
2021/07/24 12:06:27;;;;;;;4.68;2.58;;;30.50;50.10;;;;;;2226793;57;20985;-70
2021/07/24 12:08:53;;;;;;;4.60;2.60;;;30.50;49.80;;;;;;2228343;57;21008;-71
2021/07/24 12:11:19;;;;;;;3.80;2.42;;;30.50;49.20;;;;;;2210268;56;20952;-68
2021/07/24 12:13:46;;;;;;;4.15;2.30;;;30.60;49.30;;;;;;2212630;57;21038;-69
2021/07/24 12:16:13;;;;;;;4.32;2.65;;;30.60;49.30;;;;;;2211446;57;21010;-72
2021/07/24 12:18:44;;;;;;;3.58;2.20;;;30.60;49.20;;;;;;2209723;57;20988;-69
2021/07/24 12:21:17;;;;;;;4.32;2.42;;;30.60;49.40;;;;;;2231107;56;21005;-72
2021/07/24 12:23:57;;;;;;;4.05;2.42;;;30.70;49.10;;;;;;2224848;56;22122;-69
2021/07/24 12:26:45;;;;;;;3.50;2.30;;;30.80;48.60;;;;;;2223892;56;22032;-68
2021/07/24 12:29:22;;;;;;;4.78;2.60;;;30.80;48.90;;;;;;2363585;56;21523;-70
2021/07/24 12:31:53;;;;;;;4.72;2.90;;;30.90;49.10;;;;;;2204945;57;21641;-70
2021/07/24 12:34:23;;;;;;;4.07;2.58;;;30.90;49.00;;;;;;2211522;57;21049;-70
2021/07/24 12:36:59;;;;;;;4.68;2.58;;;30.90;48.40;;;;;;2224326;56;21106;-71
2021/07/24 12:39:31;;;;;;;5.00;2.62;;;31.00;48.60;;;;;;2434319;56;21046;-74
2021/07/24 12:42:01;;;;;;;4.45;2.70;;;31.10;48.70;;;;;;2212449;57;22296;-69
2021/07/24 12:44:28;;;;;;;4.95;2.65;;;31.10;48.70;;;;;;2217120;57;21541;-72
2021/07/24 12:47:14;;;;;;;4.05;2.50;;;31.20;49.20;;;;;;2214903;56;21068;-70
2021/07/24 12:49:45;;;;;;;3.70;2.22;;;31.30;48.80;;;;;;2377070;56;21009;-69
2021/07/24 12:52:34;;;;;;;4.28;2.70;;;31.30;49.30;;;;;;2217326;56;20979;-72
2021/07/24 12:55:08;;;;;;;6.53;2.60;;;31.40;48.20;;;;;;2245755;57;21001;-73
2021/07/24 12:57:35;;;;;;;5.22;2.75;;;31.40;48.10;;;;;;2226717;56;20996;-70
2021/07/24 13:00:05;;;;;;;4.82;2.75;;;31.40;47.70;;;;;;2224441;57;21079;-71
2021/07/24 13:02:31;;;;;;;5.25;2.62;;;31.40;47.40;;;;;;2206900;57;20985;-69
2021/07/24 13:04:57;;;;;;;4.25;2.58;;;31.40;47.30;;;;;;2223733;57;22082;-73
2021/07/24 13:07:26;;;;;;;5.20;2.45;;;31.30;47.30;;;;;;2223932;57;20996;-71
2021/07/24 13:09:56;;;;;;;4.60;2.15;;;31.30;47.20;;;;;;2224214;57;21040;-73